Time;durP1;ratioP1;P1;durP2;ratioP2;P2;SDS_P1;SDS_P2;PMS_P1;PMS_P2;Temp;Humidity;BMP_temperature;BMP_pressure;BME280_temperature;BME280_humidity;BME280_pressure;Samples;Min_cycle;Max_cycle;Signal;HPM_P1;HPM_P2
2022/01/15 00:01:00;;;;;;;27.67;7.28;;;2.20;1.00;;;2.10;81.63;102540.25;5033538;28;20193;-71
2022/01/15 00:03:29;;;;;;;24.73;8.05;;;2.20;99.90;;;2.24;81.11;102538.44;5002757;28;20205;-72
2022/01/15 00:05:58;;;;;;;23.88;7.70;;;2.30;99.90;;;2.24;80.89;102533.09;5017769;28;20298;-74
2022/01/15 00:08:27;;;;;;;27.15;6.43;;;2.40;1.00;;;2.25;81.17;102524.97;5016040;28;20210;-71
2022/01/15 00:10:55;;;;;;;32.00;7.15;;;2.40;99.90;;;2.08;81.33;102534.16;5030239;28;20636;-72
2022/01/15 00:13:27;;;;;;;28.88;6.18;;;2.30;99.90;;;2.13;80.87;102532.03;5016452;28;20177;-72
2022/01/15 00:16:05;;;;;;;31.42;8.23;;;2.30;99.90;;;2.06;81.05;102535.25;5033984;28;20288;-72
2022/01/15 00:18:44;;;;;;;30.08;8.00;;;2.30;1.00;;;1.98;81.37;102526.94;5033497;28;20216;-75
2022/01/15 00:21:14;;;;;;;42.60;9.13;;;2.20;1.00;;;2.22;80.93;102530.56;5033738;28;20251;-72
2022/01/15 00:23:44;;;;;;;33.00;8.75;;;2.30;1.00;;;2.22;80.29;102527.88;5034402;28;20177;-72
2022/01/15 00:26:12;;;;;;;21.73;6.00;;;2.40;1.00;;;2.07;80.76;102527.13;5034020;28;20276;-73
2022/01/15 00:28:41;;;;;;;20.95;9.27;;;2.30;99.90;;;1.83;81.15;102533.31;5016771;28;20564;-72
2022/01/15 00:31:09;;;;;;;29.02;8.15;;;2.20;1.00;;;1.83;81.39;102526.19;5017099;28;20201;-71
2022/01/15 00:33:39;;;;;;;19.50;7.88;;;2.10;99.90;;;1.89;81.26;102531.06;5033445;28;20185;-71
2022/01/15 00:36:07;;;;;;;17.23;6.90;;;2.10;1.00;;;1.71;81.77;102535.00;5033812;28;20582;-73
2022/01/15 00:38:36;;;;;;;26.27;7.43;;;2.00;1.00;;;1.63;82.08;102537.38;5033627;28;20308;-72
2022/01/15 00:41:05;;;;;;;26.33;8.75;;;2.00;99.90;;;1.64;82.08;102536.41;5033380;28;20193;-72
2022/01/15 00:43:33;;;;;;;25.02;8.50;;;1.90;1.00;;;1.59;82.12;102526.06;5015302;28;20205;-73
2022/01/15 00:46:02;;;;;;;15.32;6.55;;;1.90;99.90;;;1.60;82.20;102522.41;5033410;28;20257;-72
2022/01/15 00:48:31;;;;;;;25.65;7.30;;;1.90;99.90;;;1.51;82.35;102527.50;5032949;28;20237;-72
2022/01/15 00:51:00;;;;;;;35.60;6.85;;;1.80;99.90;;;1.42;82.47;102523.66;5033647;28;20177;-71
2022/01/15 00:53:29;;;;;;;22.70;6.40;;;1.80;1.00;;;1.40;82.92;102530.94;5017842;28;20306;-72
2022/01/15 00:55:57;;;;;;;26.40;9.10;;;1.70;1.00;;;1.52;82.27;102518.56;5018907;28;20189;-72
2022/01/15 00:58:26;;;;;;;21.13;5.93;;;1.80;1.00;;;1.41;82.97;102521.09;5034717;28;20225;-72
2022/01/15 01:00:54;;;;;;;23.30;8.05;;;1.70;1.00;;;1.26;82.98;102530.97;5033179;28;20174;-73
2022/01/15 01:03:23;;;;;;;17.23;6.25;;;1.60;1.00;;;1.11;83.50;102530.19;5032955;28;20553;-73
2022/01/15 01:05:51;;;;;;;21.52;6.20;;;1.50;35.00;;;1.22;83.46;102532.13;5031678;28;20208;-73
2022/01/15 01:08:21;;;;;;;26.80;7.50;;;1.50;99.90;;;1.19;83.33;102530.53;5032108;28;20228;-74
2022/01/15 01:10:54;;;;;;;22.90;6.30;;;1.50;99.90;;;1.05;83.57;102525.25;5033132;28;20244;-72
2022/01/15 01:19:58;;;;;;;33.00;9.02;;;1.50;99.90;;;1.08;83.64;102525.06;5034404;28;20208;-72
2022/01/15 01:24:48;;;;;;;31.13;6.55;;;1.40;99.90;;;1.13;83.80;102528.28;5037425;28;20189;-71
2022/01/15 01:27:22;;;;;;;23.23;5.00;;;1.40;99.90;;;1.27;83.91;102525.53;5036810;28;20549;-72
2022/01/15 01:30:06;;;;;;;19.80;5.28;;;1.50;99.90;;;1.32;83.29;102525.22;5019598;28;20192;-72
2022/01/15 01:32:44;;;;;;;20.10;5.93;;;1.50;99.90;;;1.24;83.45;102524.91;5037439;28;20177;-73
2022/01/15 01:35:17;;;;;;;17.80;4.63;;;1.50;99.90;;;1.12;83.65;102523.03;5037206;28;20184;-72
2022/01/15 01:37:50;;;;;;;35.55;7.55;;;1.40;99.90;;;1.22;83.69;102524.13;5018994;28;20279;-73
2022/01/15 01:40:25;;;;;;;24.98;7.32;;;1.50;99.90;;;1.48;82.77;102520.59;5037075;28;20178;-73
2022/01/15 01:43:00;;;;;;;31.73;6.30;;;1.60;99.90;;;1.25;82.85;102513.28;5037559;28;20184;-73
2022/01/15 01:45:29;;;;;;;16.95;5.80;;;1.50;99.90;;;1.25;82.99;102511.47;5035996;28;20258;-72
2022/01/15 01:47:57;;;;;;;27.88;5.18;;;1.50;99.90;;;1.20;83.14;102518.91;5037142;28;20582;-72
2022/01/15 01:50:29;;;;;;;18.65;5.95;;;1.40;99.90;;;1.05;83.50;102516.41;5036880;28;20220;-72
2022/01/15 01:52:59;;;;;;;36.58;7.50;;;1.40;99.90;;;1.11;83.64;102516.00;5021256;28;20194;-72
2022/01/15 01:55:29;;;;;;;18.00;6.82;;;1.40;99.90;;;1.13;83.47;102517.59;5038123;28;20177;-73
2022/01/15 01:57:59;;;;;;;18.55;7.35;;;1.40;99.90;;;1.01;83.99;102518.44;5036726;28;20208;-72
2022/01/15 02:00:30;;;;;;;19.95;5.30;;;1.30;99.90;;;1.07;83.69;102515.34;5019925;28;20198;-72
2022/01/15 02:03:01;;;;;;;15.73;5.32;;;1.30;99.90;;;1.11;83.39;102514.19;5018942;28;20197;-71
2022/01/15 02:05:29;;;;;;;20.10;5.10;;;1.30;99.90;;;1.10;83.55;102501.81;5036599;28;20668;-72
2022/01/15 02:07:58;;;;;;;22.23;6.03;;;1.40;99.90;;;1.02;83.37;102501.44;5035018;28;20240;-73
2022/01/15 02:10:27;;;;;;;11.15;5.22;;;1.30;99.90;;;1.23;83.46;102507.19;5036884;28;20196;-72
2022/01/15 02:12:56;;;;;;;13.80;5.43;;;1.40;99.90;;;1.14;83.63;102508.66;5036448;28;20196;-73
2022/01/15 02:15:25;;;;;;;34.75;7.90;;;1.30;99.90;;;1.08;84.04;102509.06;5036060;28;20177;-73
2022/01/15 02:17:54;;;;;;;19.60;5.97;;;1.30;99.90;;;1.19;83.88;102503.88;5035964;28;20209;-72
2022/01/15 02:23:33;;;;;;;19.92;5.43;;;1.40;99.90;;;1.09;83.56;102502.78;5015875;28;20230;-72
2022/01/15 02:26:06;;;;;;;24.98;6.05;;;1.30;99.90;;;0.93;84.14;102504.72;5035088;28;20208;-72
2022/01/15 02:28:38;;;;;;;33.88;6.57;;;1.20;99.90;;;0.99;84.44;102499.00;5035759;28;20251;-71
2022/01/15 02:31:10;;;;;;;22.23;6.05;;;1.30;99.90;;;1.05;84.16;102500.41;5036256;28;20228;-71
2022/01/15 02:33:40;;;;;;;15.90;4.93;;;1.30;99.90;;;1.17;84.13;102496.91;5034082;28;20596;-72
2022/01/15 02:36:13;;;;;;;28.83;6.10;;;1.30;99.90;;;0.94;84.06;102510.91;5036273;28;20173;-73
2022/01/15 02:38:43;;;;;;;21.55;5.47;;;1.20;99.90;;;0.94;84.62;102501.13;5017730;28;20213;-72
2022/01/15 02:41:12;;;;;;;19.17;6.30;;;1.20;99.90;;;1.16;83.81;102501.38;5035649;28;20178;-72
2022/01/15 02:43:41;;;;;;;28.42;7.13;;;1.30;99.90;;;1.14;83.58;102495.31;5035672;28;20587;-73
2022/01/15 02:46:23;;;;;;;20.00;4.38;;;1.40;99.90;;;1.07;83.84;102503.81;5034848;28;20190;-73
2022/01/15 02:48:56;;;;;;;16.85;5.70;;;1.30;99.90;;;1.00;84.47;102506.06;5035894;28;20206;-72
2022/01/15 02:51:30;;;;;;;28.83;6.75;;;1.20;99.90;;;1.15;83.96;102498.84;5035258;28;20178;-72
2022/01/15 02:53:58;;;;;;;36.15;8.30;;;1.30;99.90;;;1.14;83.96;102492.66;5034587;28;20205;-73
2022/01/15 02:56:31;;;;;;;22.20;9.13;;;1.30;99.90;;;1.06;84.03;102491.47;5035241;28;20174;-74
2022/01/15 02:59:00;;;;;;;18.48;7.28;;;1.20;99.90;;;1.04;84.34;102501.38;5017972;28;20217;-72
2022/01/15 03:01:28;;;;;;;21.55;5.97;;;1.20;99.90;;;1.03;84.27;102500.50;5035868;28;20177;-73
2022/01/15 03:03:57;;;;;;;21.65;6.90;;;1.20;99.90;;;1.11;84.19;102490.22;5035267;28;20173;-72
2022/01/15 03:06:27;;;;;;;22.27;5.93;;;1.20;99.90;;;1.06;84.10;102500.31;5017502;28;20224;-71
2022/01/15 03:08:55;;;;;;;27.05;6.60;;;1.20;99.90;;;1.11;84.09;102497.34;5035515;28;20625;-72
2022/01/15 03:11:24;;;;;;;26.98;6.40;;;1.20;99.90;;;1.04;84.45;102499.56;5035445;28;20181;-73
2022/01/15 03:13:53;;;;;;;17.23;4.60;;;1.20;99.90;;;1.04;84.57;102496.88;5035195;28;20601;-71
2022/01/15 03:16:23;;;;;;;24.42;7.50;;;1.20;99.90;;;0.99;84.42;102488.34;5035373;28;20234;-72
2022/01/15 03:18:52;;;;;;;16.58;5.28;;;1.20;99.90;;;0.92;84.86;102487.03;5017796;28;20231;-73
2022/01/15 03:21:21;;;;;;;38.30;6.38;;;1.20;99.90;;;0.94;84.81;102487.78;5038995;28;20174;-73
2022/01/15 03:23:50;;;;;;;20.65;6.38;;;1.10;99.90;;;0.97;84.85;102487.56;5036316;28;20189;-72
2022/01/15 03:26:19;;;;;;;26.70;5.15;;;1.20;99.90;;;0.84;84.82;102492.88;5017085;28;20193;-72
2022/01/15 03:28:47;;;;;;;24.45;5.93;;;1.10;99.90;;;0.92;84.89;102502.19;5016421;28;20218;-73
2022/01/15 03:31:16;;;;;;;18.30;5.40;;;1.10;99.90;;;0.92;84.76;102503.00;5034415;28;20239;-73
2022/01/15 03:33:44;;;;;;;23.55;6.68;;;1.10;99.90;;;0.85;84.85;102497.25;5034505;28;20240;-72
2022/01/15 03:36:13;;;;;;;15.00;4.65;;;1.10;99.90;;;1.02;84.72;102482.78;5034227;28;20182;-74
2022/01/15 03:38:41;;;;;;;20.85;5.20;;;1.10;99.90;;;0.95;84.75;102476.19;5034132;28;20718;-72
2022/01/15 03:41:11;;;;;;;20.38;6.63;;;1.10;99.90;;;0.68;85.15;102477.97;5032839;28;20197;-72
2022/01/15 03:43:40;;;;;;;29.30;4.95;;;1.00;99.90;;;0.70;85.75;102476.06;5016405;28;20198;-72
2022/01/15 03:46:09;;;;;;;26.42;6.20;;;0.90;99.90;;;0.82;85.62;102470.78;5016521;28;20182;-71
2022/01/15 03:48:37;;;;;;;24.75;5.70;;;1.00;99.90;;;0.89;85.29;102463.25;5033043;28;20266;-72
2022/01/15 03:51:06;;;;;;;30.05;6.45;;;1.00;99.90;;;0.74;85.74;102464.25;5034891;28;20181;-72
2022/01/15 03:53:34;;;;;;;13.45;5.15;;;0.90;99.90;;;0.77;85.70;102458.75;5018043;28;20236;-73
2022/01/15 03:56:03;;;;;;;37.85;5.88;;;0.90;99.90;;;0.72;85.54;102458.19;5035982;28;20185;-71
2022/01/15 03:58:33;;;;;;;27.52;6.68;;;0.90;99.90;;;0.78;85.70;102457.75;5035678;28;20216;-72
2022/01/15 04:01:01;;;;;;;26.08;5.88;;;0.90;99.90;;;0.84;85.93;102458.22;5034578;28;20190;-72
2022/01/15 04:03:30;;;;;;;31.85;6.57;;;0.90;99.90;;;1.01;85.73;102453.59;5033556;28;20204;-71
2022/01/15 04:05:58;;;;;;;26.63;5.63;;;1.00;99.90;;;0.98;85.71;102441.31;5017758;28;20189;-73
2022/01/15 04:08:27;;;;;;;17.35;5.40;;;1.10;99.90;;;1.07;85.39;102439.81;5034832;28;20210;-72
2022/01/15 04:10:55;;;;;;;20.38;6.00;;;1.10;99.90;;;0.93;85.82;102438.09;5037420;28;20174;-72
2022/01/15 04:13:23;;;;;;;31.58;7.18;;;1.10;99.90;;;1.15;85.88;102438.38;5019450;28;20600;-71
2022/01/15 04:15:53;;;;;;;38.30;9.02;;;1.20;99.90;;;1.26;85.78;102435.81;5019098;28;20204;-72
2022/01/15 04:18:23;;;;;;;21.98;5.75;;;1.30;99.90;;;1.27;85.58;102440.19;5038930;28;20229;-73
2022/01/15 04:20:52;;;;;;;20.48;5.90;;;1.30;99.90;;;1.35;85.80;102428.16;5043059;28;20225;-73
2022/01/15 04:23:20;;;;;;;24.17;7.75;;;1.40;99.90;;;1.43;85.88;102429.34;5041697;28;20186;-73
2022/01/15 04:25:48;;;;;;;26.00;7.47;;;1.40;99.90;;;1.50;85.69;102429.78;5044546;28;20181;-71
2022/01/15 04:28:17;;;;;;;34.78;7.95;;;1.50;99.90;;;1.59;85.37;102431.81;5041929;28;20213;-70
2022/01/15 04:30:47;;;;;;;24.45;7.93;;;1.60;99.90;;;1.50;85.47;102421.78;5024233;28;20193;-73
2022/01/15 04:33:17;;;;;;;34.53;8.25;;;1.50;99.90;;;1.56;85.54;102423.97;5037895;28;20173;-71
2022/01/15 04:35:45;;;;;;;37.83;7.72;;;1.60;99.90;;;1.63;85.54;102419.94;5034502;28;20193;-74
2022/01/15 04:38:14;;;;;;;25.52;7.35;;;1.60;99.90;;;1.55;85.23;102424.97;5033065;28;20221;-70
2022/01/15 04:40:42;;;;;;;37.75;8.40;;;1.60;99.90;;;1.62;85.20;102428.91;5033793;28;20247;-72
2022/01/15 04:43:11;;;;;;;48.65;10.27;;;1.60;99.90;;;1.62;85.24;102420.91;5033944;28;20170;-72
2022/01/15 04:45:39;;;;;;;54.38;9.77;;;1.60;99.90;;;1.63;84.99;102422.63;5034018;28;20178;-72
2022/01/15 04:48:07;;;;;;;30.77;8.20;;;1.70;99.90;;;1.62;85.09;102420.91;5016043;28;20209;-70
2022/01/15 04:50:37;;;;;;;48.92;8.82;;;1.60;99.90;;;1.57;84.96;102428.38;5015534;28;20186;-72
2022/01/15 04:53:08;;;;;;;35.97;8.88;;;1.60;99.90;;;1.55;85.18;102428.47;5035136;28;20169;-73
2022/01/15 04:55:38;;;;;;;36.58;7.25;;;1.60;99.90;;;1.49;85.13;102426.25;5016501;28;20655;-73
2022/01/15 04:58:08;;;;;;;59.50;8.63;;;1.60;99.90;;;1.43;85.31;102429.34;5035358;28;20220;-72
2022/01/15 05:00:37;;;;;;;32.03;8.60;;;1.50;99.90;;;1.42;85.36;102429.44;5034349;28;20239;-70
2022/01/15 05:03:05;;;;;;;24.92;8.10;;;1.50;99.90;;;1.47;85.72;102435.28;5015660;28;20521;-73
2022/01/15 05:05:34;;;;;;;66.20;11.18;;;1.50;99.90;;;1.45;85.58;102443.44;5036063;28;20185;-72
2022/01/15 05:08:06;;;;;;;34.45;6.90;;;1.50;99.90;;;1.40;85.58;102444.69;5036351;28;20213;-72
2022/01/15 05:10:34;;;;;;;53.17;9.25;;;1.50;99.90;;;1.35;85.43;102455.69;5034777;28;20190;-73
2022/01/15 05:13:03;;;;;;;32.35;8.80;;;1.40;99.90;;;1.57;85.59;102452.38;5035108;28;20292;-71
2022/01/15 05:15:32;;;;;;;57.60;8.77;;;1.50;99.90;;;1.53;85.47;102441.06;5034392;28;20566;-71
2022/01/15 05:18:00;;;;;;;78.00;9.57;;;1.50;99.90;;;1.47;85.55;102443.31;5039794;28;20209;-72
2022/01/15 05:20:28;;;;;;;69.35;9.98;;;1.50;99.90;;;1.68;85.09;102457.84;5037732;28;20198;-72
2022/01/15 05:22:57;;;;;;;39.35;9.48;;;1.60;99.90;;;1.66;84.78;102457.06;5038598;28;20197;-72
2022/01/15 05:25:27;;;;;;;30.35;7.82;;;1.70;99.90;;;1.64;85.03;102456.34;5037634;28;20205;-72
2022/01/15 05:27:55;;;;;;;39.30;7.78;;;1.60;99.90;;;1.65;84.97;102458.03;5035370;28;20703;-73
2022/01/15 05:30:24;;;;;;;41.42;9.63;;;1.70;99.90;;;1.64;84.80;102465.22;5034677;28;20570;-72
2022/01/15 05:32:52;;;;;;;36.00;8.50;;;1.70;99.90;;;1.71;84.63;102463.81;5032807;28;20194;-71
2022/01/15 05:35:25;;;;;;;25.85;6.65;;;1.70;99.90;;;1.53;84.76;102467.75;5033233;28;20177;-72
2022/01/15 05:37:54;;;;;;;40.00;10.15;;;1.60;99.90;;;1.64;84.67;102472.38;5032490;28;20587;-73
2022/01/15 05:40:23;;;;;;;28.63;7.20;;;1.60;99.90;;;1.60;84.92;102473.50;5014352;28;20205;-72
2022/01/15 05:42:53;;;;;;;25.10;7.20;;;1.60;99.90;;;1.49;85.03;102468.06;5014948;28;20627;-73
2022/01/15 05:45:24;;;;;;;33.95;8.82;;;1.60;99.90;;;1.51;85.55;102469.66;5033100;28;20186;-73
2022/01/15 05:47:53;;;;;;;32.15;8.20;;;1.50;99.90;;;1.58;85.07;102468.31;5014873;28;20213;-73
2022/01/15 05:50:22;;;;;;;35.25;9.23;;;1.60;99.90;;;1.55;84.95;102465.00;5033037;28;20216;-74
2022/01/15 05:52:50;;;;;;;23.90;8.80;;;1.60;99.90;;;1.60;84.88;102473.50;5033193;28;20178;-72
2022/01/15 05:55:19;;;;;;;24.42;7.90;;;1.60;99.90;;;1.58;84.99;102478.97;5032644;28;20193;-71
2022/01/15 05:57:47;;;;;;;19.08;8.80;;;1.60;99.90;;;1.66;85.13;102470.41;5033319;28;20209;-73
2022/01/15 06:00:17;;;;;;;23.20;8.32;;;1.70;99.90;;;1.72;84.92;102468.19;5032866;28;20233;-72
2022/01/15 06:02:46;;;;;;;25.45;8.55;;;1.70;99.90;;;1.77;84.50;102464.34;5033321;28;20201;-71
2022/01/15 06:05:14;;;;;;;36.38;10.30;;;1.70;99.90;;;1.82;84.49;102463.06;5033184;28;20194;-71
2022/01/15 06:07:43;;;;;;;31.48;10.40;;;1.80;99.90;;;1.80;84.20;102470.31;5032584;28;20300;-72
2022/01/15 06:10:12;;;;;;;23.38;9.10;;;1.80;99.90;;;1.93;83.87;102459.66;5035943;28;20173;-71
2022/01/15 06:12:44;;;;;;;33.35;11.27;;;1.90;99.90;;;1.73;84.21;102469.91;5018131;28;20186;-74
2022/01/15 06:15:16;;;;;;;33.53;8.45;;;1.80;99.90;;;1.79;84.21;102463.28;5035901;28;20177;-73
2022/01/15 06:17:45;;;;;;;23.73;9.15;;;1.80;99.90;;;1.94;84.24;102462.19;5036468;28;20220;-72
2022/01/15 06:20:15;;;;;;;18.25;8.82;;;1.90;99.90;;;1.97;83.33;102456.66;5036624;28;20269;-74
2022/01/15 06:22:44;;;;;;;38.65;10.27;;;1.90;99.90;;;1.91;83.37;102457.06;5037986;28;20174;-73
2022/01/15 06:25:13;;;;;;;21.15;8.70;;;2.00;99.90;;;1.88;83.71;102451.09;5038245;28;20178;-72
2022/01/15 06:27:41;;;;;;;31.40;11.18;;;1.90;99.90;;;1.92;83.46;102447.25;5035517;28;20209;-73
2022/01/15 06:30:10;;;;;;;25.02;9.10;;;1.90;99.90;;;1.86;83.59;102443.19;5035706;28;20628;-72
2022/01/15 06:32:40;;;;;;;25.08;7.95;;;1.90;99.90;;;1.89;83.34;102436.81;5034303;28;20193;-74
2022/01/15 06:35:12;;;;;;;30.70;10.73;;;1.90;99.90;;;1.85;83.47;102445.97;5035460;28;20170;-71
2022/01/15 06:37:41;;;;;;;46.80;11.43;;;1.90;99.90;;;1.77;83.33;102451.84;5035073;28;20216;-71
2022/01/15 06:40:11;;;;;;;36.70;9.05;;;1.80;99.90;;;1.55;83.43;102460.47;5037872;28;20206;-71
2022/01/15 06:42:39;;;;;;;35.03;7.72;;;1.70;99.90;;;1.51;84.17;102463.47;5036296;28;20189;-75
2022/01/15 06:45:09;;;;;;;48.67;10.40;;;1.60;99.90;;;1.43;84.14;102465.81;5035388;28;20174;-73
2022/01/15 06:47:39;;;;;;;26.00;11.07;;;1.60;99.90;;;1.39;84.28;102470.53;5035496;28;20583;-72
2022/01/15 06:50:09;;;;;;;33.22;10.30;;;1.50;99.90;;;1.35;84.44;102465.50;5035104;28;20196;-73
2022/01/15 06:52:41;;;;;;;33.60;9.73;;;1.40;99.90;;;1.47;84.35;102472.66;5035619;28;20361;-73
2022/01/15 06:55:11;;;;;;;28.63;10.68;;;1.50;99.90;;;1.40;84.41;102480.25;5034939;28;20193;-72
2022/01/15 06:57:39;;;;;;;29.75;9.70;;;1.40;99.90;;;1.29;84.20;102475.63;5035723;28;20205;-73
2022/01/15 07:00:11;;;;;;;31.95;9.13;;;1.40;99.90;;;1.34;84.00;102479.78;5034803;28;20723;-73
2022/01/15 07:02:50;;;;;;;32.83;10.30;;;1.40;99.90;;;1.23;84.37;102478.69;5035280;28;20185;-72
2022/01/15 07:05:20;;;;;;;21.27;10.90;;;1.30;99.90;;;1.31;84.46;102478.16;5035220;28;20307;-72
2022/01/15 07:07:49;;;;;;;32.67;8.15;;;1.30;99.90;;;1.42;84.23;102480.97;5033729;28;20715;-71
2022/01/15 07:10:17;;;;;;;28.83;9.32;;;1.40;99.90;;;1.37;83.98;102477.75;5034638;28;20703;-72
2022/01/15 07:12:51;;;;;;;32.50;8.85;;;1.40;99.90;;;1.40;83.98;102479.38;5035019;28;20185;-71
2022/01/15 07:15:19;;;;;;;26.10;9.35;;;1.40;99.90;;;1.37;83.91;102482.22;5034823;28;20280;-72
2022/01/15 07:17:50;;;;;;;35.58;9.40;;;1.40;99.90;;;1.30;83.79;102482.69;5034428;28;20580;-72
2022/01/15 07:20:20;;;;;;;41.67;12.02;;;1.40;99.90;;;1.35;84.37;102493.03;5034254;28;20165;-72
2022/01/15 07:22:49;;;;;;;24.50;8.68;;;1.30;99.90;;;1.46;83.98;102498.47;5034727;28;20182;-72
2022/01/15 07:25:17;;;;;;;24.58;10.60;;;1.40;99.90;;;1.53;83.69;102499.78;5033783;28;20193;-71
2022/01/15 07:27:46;;;;;;;26.00;10.77;;;1.50;99.90;;;1.60;83.56;102500.19;5035181;28;20213;-71
2022/01/15 07:30:16;;;;;;;23.85;8.73;;;1.60;99.90;;;1.54;83.78;102505.97;5034470;28;20188;-72
2022/01/15 07:32:45;;;;;;;27.42;11.02;;;1.50;99.90;;;1.73;83.55;102511.75;5049721;28;20193;-71
2022/01/15 07:35:18;;;;;;;24.65;9.55;;;1.70;99.90;;;1.77;82.67;102510.56;5034536;28;20182;-72
2022/01/15 07:37:47;;;;;;;24.17;9.45;;;1.70;99.90;;;1.53;82.70;102509.59;5033944;28;20201;-72
2022/01/15 07:40:16;;;;;;;21.88;9.57;;;1.60;99.90;;;1.46;83.39;102508.28;5083110;22;20228;-74
2022/01/15 07:42:45;;;;;;;22.15;10.23;;;1.60;99.90;;;1.49;83.64;102510.75;5073174;28;20199;-75
2022/01/15 07:45:17;;;;;;;36.30;9.95;;;1.60;99.90;;;1.64;83.29;102515.06;5073612;28;20180;-73
2022/01/15 07:47:47;;;;;;;35.08;12.30;;;1.60;99.90;;;1.75;82.67;102515.16;5073299;28;20200;-73
2022/01/15 07:50:23;;;;;;;28.63;9.00;;;1.70;99.90;;;1.78;82.69;102519.44;5073221;28;20642;-73
2022/01/15 07:52:53;;;;;;;29.15;10.48;;;1.70;99.90;;;1.81;82.57;102516.56;5055330;28;20186;-73
2022/01/15 07:55:23;;;;;;;21.92;11.10;;;1.80;99.90;;;1.82;82.48;102516.44;5073297;28;20380;-73
2022/01/15 07:58:03;;;;;;;25.65;13.63;;;1.80;99.90;;;1.84;82.34;102521.69;5054176;28;20270;-74
2022/01/15 08:00:32;;;;;;;26.15;11.48;;;1.80;99.90;;;1.82;82.61;102511.13;5036959;28;20196;-73
2022/01/15 08:03:01;;;;;;;20.77;9.88;;;1.80;99.90;;;1.95;81.89;102521.78;5054975;28;20241;-73
2022/01/15 08:05:31;;;;;;;29.17;10.73;;;1.90;99.90;;;1.89;82.00;102517.72;5056299;28;20184;-73
2022/01/15 08:08:00;;;;;;;28.48;9.88;;;1.90;99.90;;;1.67;82.32;102518.38;5056468;28;20380;-74
2022/01/15 08:10:29;;;;;;;23.00;9.70;;;1.80;99.90;;;1.65;82.57;102511.41;5057416;28;20185;-73
2022/01/15 08:12:57;;;;;;;19.55;9.90;;;1.80;99.90;;;1.97;82.07;102518.06;5063803;28;20241;-74
2022/01/15 08:15:26;;;;;;;22.48;9.40;;;1.90;99.90;;;1.92;81.74;102517.53;5070912;28;20229;-73
2022/01/15 08:17:55;;;;;;;20.60;8.55;;;1.90;99.90;;;1.70;82.10;102518.16;5071441;28;20216;-72
2022/01/15 08:20:24;;;;;;;30.25;10.00;;;1.80;99.90;;;1.52;82.29;102521.22;5070712;28;20252;-73
2022/01/15 08:22:54;;;;;;;18.63;7.50;;;1.70;99.90;;;1.60;81.75;102526.88;5074576;28;20185;-74
2022/01/15 08:25:25;;;;;;;27.15;8.50;;;1.70;99.90;;;1.76;81.87;102532.88;5057899;28;20181;-74
2022/01/15 08:27:54;;;;;;;22.67;7.55;;;1.70;99.90;;;1.79;81.94;102531.84;5074460;28;20432;-73
2022/01/15 08:30:24;;;;;;;16.63;8.52;;;1.80;99.90;;;2.05;81.28;102529.06;5072859;28;20165;-73
2022/01/15 08:32:53;;;;;;;27.50;9.55;;;1.90;99.90;;;1.80;80.89;102528.19;5071546;28;20208;-74
2022/01/15 08:35:22;;;;;;;15.48;7.22;;;1.90;99.90;;;1.64;81.56;102531.06;5055769;28;20204;-73
2022/01/15 08:37:51;;;;;;;21.42;8.98;;;1.70;99.90;;;1.58;82.12;102535.00;5053868;28;20622;-73
2022/01/15 08:40:22;;;;;;;25.85;9.50;;;1.60;99.90;;;1.63;81.59;102543.56;5035807;28;20196;-73
2022/01/15 08:42:51;;;;;;;21.95;8.48;;;1.70;99.90;;;1.48;82.01;102541.06;5057582;28;20187;-74
2022/01/15 08:45:20;;;;;;;24.27;9.15;;;1.60;99.90;;;1.67;82.26;102538.84;5056931;28;20184;-72
2022/01/15 08:47:49;;;;;;;22.35;10.25;;;1.60;99.90;;;1.85;81.50;102542.94;5039125;28;20223;-74
2022/01/15 08:50:18;;;;;;;16.20;8.20;;;1.70;99.90;;;1.52;81.44;102534.56;5041771;28;20177;-73
2022/01/15 08:52:46;;;;;;;21.45;9.50;;;1.70;99.90;;;1.72;81.66;102542.06;5037428;28;20185;-73
2022/01/15 08:55:17;;;;;;;21.15;8.95;;;1.70;99.90;;;1.67;81.30;102545.06;5055377;28;20181;-75
2022/01/15 08:57:48;;;;;;;22.23;8.73;;;1.60;99.90;;;1.71;81.09;102543.88;5054720;28;20214;-75
2022/01/15 09:00:19;;;;;;;18.63;9.25;;;1.70;99.90;;;1.75;81.80;102552.53;5056614;28;20180;-73
2022/01/15 09:02:48;;;;;;;31.73;10.43;;;1.70;99.90;;;1.91;81.21;102555.84;5057500;28;20215;-75
2022/01/15 09:05:19;;;;;;;25.27;9.57;;;1.80;99.90;;;1.51;82.19;102552.38;5055049;28;20628;-75
2022/01/15 09:07:47;;;;;;;34.90;9.38;;;1.60;99.90;;;1.72;81.55;102544.75;5053889;28;20720;-73
2022/01/15 09:10:17;;;;;;;24.27;8.63;;;1.70;99.90;;;1.55;81.96;102542.38;5059161;28;20273;-75
2022/01/15 09:12:47;;;;;;;25.10;10.05;;;1.60;99.90;;;1.78;80.97;102551.47;5063516;28;20200;-75
2022/01/15 09:15:31;;;;;;;21.85;9.07;;;1.80;99.90;;;1.60;81.58;102551.75;5060021;28;20244;-74
2022/01/15 09:18:00;;;;;;;28.27;8.63;;;1.70;99.90;;;1.63;81.56;102553.38;5066227;28;20204;-75
2022/01/15 09:20:29;;;;;;;33.08;11.50;;;1.70;99.90;;;1.81;81.66;102556.59;5060572;28;20203;-74
2022/01/15 09:22:58;;;;;;;21.17;9.73;;;1.80;99.90;;;1.87;81.19;102554.38;5066270;28;20208;-75
2022/01/15 09:25:27;;;;;;;20.88;10.38;;;1.90;99.90;;;2.04;80.68;102559.38;5063865;28;20635;-74
2022/01/15 09:30:58;;;;;;;31.70;9.73;;;1.80;99.90;;;1.93;81.00;102564.63;5007034;28;20270;-74
2022/01/15 09:33:27;;;;;;;26.73;10.45;;;1.90;99.90;;;2.15;80.89;102562.16;5005331;28;20179;-74
2022/01/15 09:35:55;;;;;;;26.88;11.30;;;2.00;99.90;;;2.24;80.68;102565.16;5018250;28;20201;-75
2022/01/15 09:38:24;;;;;;;26.08;12.27;;;2.10;99.90;;;2.41;79.49;102565.69;5066608;28;20224;-75
2022/01/15 09:40:53;;;;;;;26.23;9.60;;;2.20;99.90;;;2.46;79.33;102560.00;5063844;28;20208;-74
2022/01/15 09:43:23;;;;;;;32.60;9.73;;;2.30;99.90;;;2.52;79.15;102555.06;5065371;28;20247;-75
2022/01/15 09:45:53;;;;;;;23.77;8.70;;;2.40;99.90;;;2.42;78.95;102547.84;5068386;28;20203;-74
2022/01/15 09:48:27;;;;;;;29.50;10.57;;;2.30;99.90;;;2.37;78.63;102552.66;5069126;28;20267;-73
2022/01/15 09:50:56;;;;;;;20.77;9.50;;;2.40;99.90;;;2.51;78.84;102550.72;5069433;28;20252;-74
2022/01/15 09:53:24;;;;;;;16.02;8.82;;;2.40;99.90;;;2.38;78.84;102546.31;5069970;28;20165;-73
2022/01/15 09:55:54;;;;;;;14.32;8.88;;;2.30;99.90;;;2.29;78.71;102555.00;5064489;28;20180;-75
2022/01/15 09:58:24;;;;;;;16.80;8.35;;;2.20;99.90;;;2.36;78.71;102548.28;5062000;28;20232;-73
2022/01/15 10:00:53;;;;;;;29.42;8.98;;;2.30;99.90;;;2.37;78.65;102544.63;5039267;28;20679;-75
2022/01/15 10:03:21;;;;;;;17.30;8.57;;;2.30;99.90;;;2.56;77.59;102547.69;5063169;28;20200;-73
2022/01/15 10:05:53;;;;;;;22.05;7.65;;;2.50;99.90;;;2.62;77.77;102539.22;5075472;28;20181;-73
2022/01/15 10:08:22;;;;;;;22.55;9.75;;;2.50;99.90;;;2.60;77.69;102546.50;5074767;28;20239;-73
2022/01/15 10:10:53;;;;;;;25.30;9.57;;;2.50;99.90;;;2.57;77.24;102541.38;5057039;28;20203;-74
2022/01/15 10:13:27;;;;;;;23.02;8.23;;;2.50;99.90;;;2.67;76.93;102550.44;5058759;28;20651;-73
2022/01/15 10:16:17;;;;;;;22.10;8.77;;;2.60;99.90;;;2.64;77.26;102553.34;5079740;28;20180;-74
2022/01/15 10:18:48;;;;;;;24.27;8.88;;;2.60;99.90;;;2.63;77.29;102540.94;5058709;28;20374;-73
2022/01/15 10:21:22;;;;;;;13.00;8.23;;;2.60;99.90;;;2.37;77.13;102548.13;5077394;28;20271;-72
2022/01/15 10:23:55;;;;;;;25.48;9.32;;;2.40;99.90;;;2.56;77.58;102550.38;5057949;28;20258;-74
2022/01/15 10:26:26;;;;;;;26.20;8.32;;;2.40;99.90;;;2.75;76.85;102545.41;5075729;28;20174;-75
2022/01/15 10:29:00;;;;;;;23.10;10.32;;;2.50;99.90;;;2.63;76.77;102541.78;5074881;28;20208;-73
2022/01/15 10:31:31;;;;;;;20.52;10.55;;;2.50;99.90;;;2.73;76.50;102541.97;5073962;28;20558;-73
2022/01/15 10:34:25;;;;;;;25.08;10.23;;;2.60;99.90;;;2.89;76.08;102537.22;5074097;28;20176;-73
2022/01/15 10:37:05;;;;;;;14.00;8.00;;;2.70;99.90;;;2.89;75.85;102531.88;5071154;28;20176;-73
2022/01/15 10:39:34;;;;;;;23.85;9.95;;;2.70;99.90;;;2.72;75.99;102537.59;5054041;28;20189;-74
2022/01/15 10:42:14;;;;;;;19.80;7.63;;;2.70;99.90;;;2.85;76.17;102530.41;5053979;28;20235;-74
2022/01/15 10:44:45;;;;;;;21.02;8.65;;;2.70;99.90;;;2.99;75.31;102530.25;5054263;28;20168;-73